Time;durP1;ratioP1;P1;durP2;ratioP2;P2;SDS_P1;SDS_P2;PMS_P1;PMS_P2;Temp;Humidity;BMP_temperature;BMP_pressure;BME280_temperature;BME280_humidity;BME280_pressure;Samples;Min_cycle;Max_cycle;Signal;HPM_P1;HPM_P2
2022/03/14 00:00:20;;;;;;;12.20;4.45;;;7.80;99.20;;;;;;5030645;28;20048;-47
2022/03/14 00:02:47;;;;;;;9.73;4.35;;;7.80;99.30;;;;;;5030835;28;20519;-42
2022/03/14 00:05:15;;;;;;;10.07;4.10;;;7.80;99.30;;;;;;5034638;28;20370;-46
2022/03/14 00:07:44;;;;;;;10.07;4.50;;;7.80;99.30;;;;;;5035942;28;20039;-44
2022/03/14 00:10:13;;;;;;;9.07;4.47;;;7.80;99.40;;;;;;5034335;28;20053;-41
2022/03/14 00:12:42;;;;;;;12.85;4.50;;;7.80;99.30;;;;;;5034443;28;20041;-49
2022/03/14 00:15:11;;;;;;;12.80;4.30;;;7.90;99.10;;;;;;5034263;28;20041;-44
2022/03/14 00:17:38;;;;;;;10.65;4.00;;;7.90;99.10;;;;;;5034237;28;20163;-42
2022/03/14 00:20:07;;;;;;;11.52;4.13;;;7.90;99.00;;;;;;5034085;28;20091;-42
2022/03/14 00:22:35;;;;;;;10.68;3.90;;;7.80;99.10;;;;;;5034161;28;20044;-41
2022/03/14 00:25:02;;;;;;;10.18;3.80;;;7.80;99.20;;;;;;5034166;28;20516;-42
2022/03/14 00:27:28;;;;;;;9.88;4.03;;;7.70;99.20;;;;;;5034288;28;20488;-44
2022/03/14 00:29:55;;;;;;;13.07;4.22;;;7.70;99.40;;;;;;5016270;28;20377;-42
2022/03/14 00:32:24;;;;;;;10.68;3.95;;;7.70;99.30;;;;;;5033056;28;20049;-43
2022/03/14 00:34:50;;;;;;;12.48;4.30;;;7.70;99.40;;;;;;5033866;28;20397;-46
2022/03/14 00:37:18;;;;;;;11.88;4.30;;;7.60;99.40;;;;;;5034234;28;20124;-44
2022/03/14 00:39:47;;;;;;;11.65;4.03;;;7.60;99.50;;;;;;5037868;28;20049;-49
2022/03/14 00:42:14;;;;;;;10.05;3.45;;;7.70;99.90;;;;;;5034078;28;20043;-46
2022/03/14 00:44:42;;;;;;;12.48;4.22;;;7.70;99.50;;;;;;5033705;28;20034;-39
2022/03/14 00:47:09;;;;;;;12.60;4.53;;;7.70;99.50;;;;;;5033721;28;20033;-44
2022/03/14 00:49:36;;;;;;;12.23;4.13;;;7.60;99.70;;;;;;5030670;28;20081;-43
2022/03/14 00:52:05;;;;;;;18.48;3.88;;;7.70;99.50;;;;;;5031536;28;20083;-41
2022/03/14 00:54:32;;;;;;;14.73;4.13;;;7.60;99.40;;;;;;5032389;28;20041;-40
2022/03/14 00:56:59;;;;;;;15.18;5.75;;;7.60;99.50;;;;;;5033987;28;20544;-41
2022/03/14 00:59:27;;;;;;;15.07;4.90;;;7.60;99.60;;;;;;5033844;28;20064;-44
2022/03/14 01:01:54;;;;;;;13.65;5.15;;;7.60;99.70;;;;;;5033575;28;20124;-41
2022/03/14 01:04:21;;;;;;;11.73;3.60;;;7.60;99.70;;;;;;5032252;28;20519;-44
2022/03/14 01:06:48;;;;;;;11.30;3.17;;;7.70;99.70;;;;;;5032456;28;20114;-50
2022/03/14 01:09:15;;;;;;;12.85;3.20;;;7.70;99.70;;;;;;5035170;28;20041;-41
2022/03/14 01:11:42;;;;;;;11.45;3.05;;;7.80;99.70;;;;;;5033743;28;20163;-40
2022/03/14 01:14:10;;;;;;;14.00;3.53;;;7.80;99.60;;;;;;5033612;28;20060;-39
2022/03/14 01:16:37;;;;;;;14.35;3.17;;;7.90;99.60;;;;;;5033516;28;20056;-41
2022/03/14 01:19:04;;;;;;;13.00;3.22;;;7.90;99.50;;;;;;5033247;28;20488;-42
2022/03/14 01:21:31;;;;;;;13.85;4.35;;;8.00;99.60;;;;;;5033224;28;20041;-40
2022/03/14 01:23:58;;;;;;;12.45;3.30;;;8.00;99.50;;;;;;5033502;28;20049;-44
2022/03/14 01:26:25;;;;;;;14.90;3.13;;;8.10;99.50;;;;;;5033207;28;20037;-42
2022/03/14 01:28:52;;;;;;;14.48;3.15;;;8.10;99.40;;;;;;5033269;28;20060;-44
2022/03/14 01:31:18;;;;;;;17.05;3.78;;;8.20;99.40;;;;;;5032088;28;20555;-44
2022/03/14 01:33:45;;;;;;;13.32;3.30;;;8.20;99.30;;;;;;5033289;28;20045;-45
2022/03/14 01:36:12;;;;;;;8.63;3.03;;;8.20;99.30;;;;;;5033276;28;20045;-42
2022/03/14 01:38:39;;;;;;;15.95;3.70;;;8.30;99.40;;;;;;5038393;28;20049;-43
2022/03/14 01:41:06;;;;;;;15.32;3.80;;;8.30;99.20;;;;;;5031902;28;20056;-48
2022/03/14 01:43:33;;;;;;;9.35;3.47;;;8.30;99.20;;;;;;5026718;28;20044;-43
2022/03/14 01:45:59;;;;;;;19.48;3.83;;;8.30;99.20;;;;;;5033098;28;20515;-44
2022/03/14 01:48:32;;;;;;;14.45;3.83;;;8.30;99.10;;;;;;5026861;28;20128;-47
2022/03/14 01:50:59;;;;;;;13.07;3.55;;;8.30;99.10;;;;;;5031720;28;20073;-40
2022/03/14 01:53:25;;;;;;;19.00;4.40;;;8.30;99.20;;;;;;5031852;28;20042;-41
2022/03/14 01:55:52;;;;;;;14.60;3.28;;;8.30;99.20;;;;;;5033123;28;20049;-41
2022/03/14 01:58:21;;;;;;;13.05;3.83;;;8.40;99.30;;;;;;5031889;28;20044;-43
2022/03/14 02:00:48;;;;;;;15.20;4.55;;;8.30;99.30;;;;;;5032911;28;20398;-42
2022/03/14 02:03:15;;;;;;;12.55;3.63;;;8.30;99.30;;;;;;5036654;28;20489;-41
2022/03/14 02:05:42;;;;;;;11.45;3.65;;;8.30;99.20;;;;;;5037021;28;20112;-44
2022/03/14 02:08:08;;;;;;;14.30;3.83;;;8.40;99.30;;;;;;5036835;28;20435;-47
2022/03/14 02:10:36;;;;;;;15.93;4.30;;;8.30;99.20;;;;;;5036953;28;20477;-43
2022/03/14 02:13:03;;;;;;;17.13;4.15;;;8.40;99.30;;;;;;5030692;28;20052;-45
2022/03/14 02:15:30;;;;;;;12.63;4.30;;;8.40;99.20;;;;;;5030514;28;20128;-44
2022/03/14 02:17:57;;;;;;;13.15;3.78;;;8.40;99.20;;;;;;5030588;28;20044;-40
2022/03/14 02:20:23;;;;;;;12.90;3.55;;;8.40;99.30;;;;;;5030255;28;20041;-40
2022/03/14 02:22:50;;;;;;;13.48;4.28;;;8.30;99.30;;;;;;5036596;28;20045;-43
2022/03/14 02:25:17;;;;;;;17.85;4.28;;;8.30;99.20;;;;;;5036519;28;20042;-43
2022/03/14 02:27:44;;;;;;;13.77;4.22;;;8.40;99.30;;;;;;5036728;28;20041;-40
2022/03/14 02:30:11;;;;;;;15.40;4.25;;;8.40;99.30;;;;;;5036425;28;20040;-41
2022/03/14 02:32:41;;;;;;;14.00;4.05;;;8.30;99.30;;;;;;5036524;28;20045;-42
2022/03/14 02:35:11;;;;;;;14.13;5.05;;;8.30;99.30;;;;;;5030451;28;20076;-40
2022/03/14 02:37:38;;;;;;;16.42;4.28;;;8.30;99.30;;;;;;5039329;28;20044;-41
2022/03/14 02:40:05;;;;;;;16.85;4.45;;;8.30;99.30;;;;;;5036304;28;20109;-40
2022/03/14 02:42:32;;;;;;;17.63;4.20;;;8.30;99.30;;;;;;5030095;28;20064;-40
2022/03/14 02:45:00;;;;;;;17.38;4.43;;;8.30;99.30;;;;;;5030359;28;20044;-41
2022/03/14 02:47:27;;;;;;;19.10;4.75;;;8.20;99.30;;;;;;5038153;28;20467;-46
2022/03/14 02:49:53;;;;;;;13.98;4.35;;;8.10;99.30;;;;;;5029760;28;20067;-42
2022/03/14 02:52:20;;;;;;;13.23;4.35;;;8.10;99.40;;;;;;5029881;28;20046;-43
2022/03/14 02:54:50;;;;;;;18.95;4.15;;;8.00;99.40;;;;;;5029833;28;20041;-41
2022/03/14 02:57:16;;;;;;;17.02;4.65;;;7.90;99.60;;;;;;5036006;28;20088;-43
2022/03/14 02:59:44;;;;;;;12.77;4.30;;;7.90;99.50;;;;;;5035911;28;20048;-43
2022/03/14 03:02:10;;;;;;;17.45;4.88;;;7.80;99.50;;;;;;5029696;28;20037;-48
2022/03/14 03:04:40;;;;;;;14.90;4.47;;;7.80;99.50;;;;;;5029722;28;20073;-41
2022/03/14 03:07:07;;;;;;;15.52;4.53;;;7.70;99.60;;;;;;5029724;28;20052;-43
2022/03/14 03:09:34;;;;;;;16.92;3.88;;;7.70;99.60;;;;;;5039527;28;20113;-44
2022/03/14 03:12:01;;;;;;;19.52;4.80;;;7.60;99.70;;;;;;5035759;28;20049;-47
2022/03/14 03:14:34;;;;;;;14.02;4.00;;;7.60;99.70;;;;;;5030131;28;20056;-47
2022/03/14 03:17:01;;;;;;;15.75;3.65;;;7.60;99.70;;;;;;5034566;28;20401;-43
2022/03/14 03:19:28;;;;;;;10.48;3.28;;;7.50;99.50;;;;;;5035551;28;20064;-43
2022/03/14 03:21:55;;;;;;;12.73;3.10;;;7.50;99.50;;;;;;5035483;28;20038;-47
2022/03/14 03:24:22;;;;;;;13.90;3.38;;;7.50;99.40;;;;;;5035656;28;20080;-44
2022/03/14 03:26:48;;;;;;;17.02;3.28;;;7.40;99.30;;;;;;5035748;28;20044;-40
2022/03/14 03:29:15;;;;;;;18.80;3.58;;;7.40;99.20;;;;;;5035506;28;20056;-40
2022/03/14 03:31:42;;;;;;;11.05;3.00;;;7.40;99.10;;;;;;5035439;28;20040;-48
2022/03/14 03:34:11;;;;;;;13.93;2.97;;;7.40;99.00;;;;;;5035633;28;20041;-40
2022/03/14 03:36:38;;;;;;;18.13;3.22;;;7.30;99.00;;;;;;5035383;28;20086;-49
2022/03/14 03:39:05;;;;;;;16.25;3.25;;;7.30;99.00;;;;;;5034616;28;20091;-45
2022/03/14 03:41:32;;;;;;;16.27;3.35;;;7.30;99.00;;;;;;5035092;28;20057;-46
2022/03/14 03:43:59;;;;;;;18.63;3.10;;;7.30;99.00;;;;;;5035126;28;20038;-44
2022/03/14 03:46:26;;;;;;;12.75;2.85;;;7.30;99.00;;;;;;5035161;28;20056;-40
2022/03/14 03:48:54;;;;;;;11.00;2.95;;;7.20;99.00;;;;;;5035061;28;20137;-46
2022/03/14 03:51:21;;;;;;;17.88;3.03;;;7.20;98.80;;;;;;5035114;28;20100;-41
2022/03/14 03:53:48;;;;;;;12.10;3.45;;;7.20;98.90;;;;;;5034979;28;20053;-42
2022/03/14 03:56:15;;;;;;;12.15;2.65;;;7.10;98.90;;;;;;5033810;28;20132;-43
2022/03/14 03:58:42;;;;;;;15.02;2.90;;;7.10;98.90;;;;;;5035054;28;20497;-41
2022/03/14 04:01:10;;;;;;;11.07;2.70;;;7.10;99.00;;;;;;5034890;28;20076;-45
2022/03/14 04:03:37;;;;;;;13.63;2.80;;;7.00;99.20;;;;;;5028697;28;20040;-40
2022/03/14 04:06:04;;;;;;;10.90;3.47;;;7.00;99.10;;;;;;5034665;28;20041;-41
2022/03/14 04:08:31;;;;;;;15.13;4.03;;;7.00;99.20;;;;;;5028633;28;20120;-42
2022/03/14 04:10:58;;;;;;;10.35;2.63;;;6.90;99.10;;;;;;5029840;28;20073;-41
2022/03/14 04:13:26;;;;;;;11.95;3.15;;;6.90;99.20;;;;;;5037843;28;20045;-43
2022/03/14 04:15:54;;;;;;;14.07;3.50;;;6.90;99.20;;;;;;5034679;28;20395;-44
2022/03/14 04:18:23;;;;;;;9.18;3.15;;;6.80;99.10;;;;;;5035078;28;20045;-44
2022/03/14 04:20:50;;;;;;;11.50;2.60;;;6.70;99.20;;;;;;5034463;28;20045;-42
2022/03/14 04:23:17;;;;;;;14.43;3.22;;;6.70;99.30;;;;;;5034460;28;20057;-42
2022/03/14 04:25:44;;;;;;;11.05;2.90;;;6.60;99.30;;;;;;5033529;28;20048;-45
2022/03/14 04:28:11;;;;;;;12.57;2.50;;;6.60;99.30;;;;;;5034384;28;20038;-45
2022/03/14 04:30:38;;;;;;;13.85;3.17;;;6.50;99.50;;;;;;5034243;28;20046;-44
2022/03/14 04:33:08;;;;;;;9.68;2.25;;;6.50;99.40;;;;;;5034455;28;20121;-48
2022/03/14 04:35:35;;;;;;;10.73;2.58;;;6.50;99.40;;;;;;5034271;28;20054;-46
2022/03/14 04:38:02;;;;;;;13.55;2.88;;;6.40;99.60;;;;;;5034115;28;20048;-41
2022/03/14 04:40:32;;;;;;;11.48;2.60;;;6.40;99.60;;;;;;5033865;28;20092;-47
2022/03/14 04:42:58;;;;;;;11.68;2.75;;;6.30;99.70;;;;;;5034161;28;20052;-41
2022/03/14 04:45:25;;;;;;;8.98;2.83;;;6.30;99.70;;;;;;5034177;28;20503;-45
2022/03/14 04:47:52;;;;;;;14.02;3.45;;;6.30;99.80;;;;;;5037424;28;20400;-45
2022/03/14 04:50:19;;;;;;;12.75;2.58;;;6.20;99.70;;;;;;5037232;28;20063;-41
2022/03/14 04:52:46;;;;;;;11.02;2.45;;;6.20;99.70;;;;;;5033771;28;20049;-42
2022/03/14 04:55:13;;;;;;;10.80;2.83;;;6.20;99.60;;;;;;5032649;28;20050;-47
2022/03/14 04:57:40;;;;;;;9.70;2.60;;;6.20;99.80;;;;;;5033934;28;20067;-41
2022/03/14 05:00:08;;;;;;;15.55;2.80;;;6.10;99.70;;;;;;5033899;28;20045;-43
2022/03/14 05:02:34;;;;;;;15.07;2.78;;;6.10;99.70;;;;;;5033805;28;20500;-39
2022/03/14 05:05:01;;;;;;;8.75;2.15;;;6.10;99.80;;;;;;5033884;28;20455;-40
2022/03/14 05:07:28;;;;;;;13.02;2.33;;;6.10;99.80;;;;;;5033546;28;20045;-41
2022/03/14 05:09:55;;;;;;;13.75;2.60;;;6.00;99.80;;;;;;5036572;28;20396;-39
2022/03/14 05:12:24;;;;;;;9.50;2.45;;;6.00;99.90;;;;;;5033654;28;20038;-43
2022/03/14 05:14:51;;;;;;;10.35;2.67;;;6.00;99.70;;;;;;5033511;28;20489;-41
2022/03/14 05:17:18;;;;;;;8.18;2.15;;;6.00;99.80;;;;;;5033610;28;20041;-41
2022/03/14 05:19:45;;;;;;;10.73;3.13;;;5.90;99.90;;;;;;5033454;28;20404;-39
2022/03/14 05:22:12;;;;;;;9.20;2.88;;;5.80;99.80;;;;;;5033393;28;20037;-40
2022/03/14 05:24:39;;;;;;;9.57;2.38;;;5.80;99.90;;;;;;5033232;28;20041;-42
2022/03/14 05:27:06;;;;;;;13.70;2.92;;;5.80;99.90;;;;;;5032350;28;20060;-40
2022/03/14 05:29:33;;;;;;;9.30;2.53;;;5.70;99.90;;;;;;5033217;28;20046;-44
2022/03/14 05:32:00;;;;;;;9.10;2.75;;;5.70;99.70;;;;;;5033205;28;20041;-39
2022/03/14 05:34:27;;;;;;;8.23;1.95;;;5.70;99.90;;;;;;5033237;28;20049;-40
2022/03/14 05:36:54;;;;;;;13.90;2.97;;;5.70;99.90;;;;;;5033286;28;20055;-41
2022/03/14 05:39:20;;;;;;;10.43;2.35;;;5.60;99.90;;;;;;5038920;28;20046;-40
2022/03/14 05:41:47;;;;;;;13.40;3.13;;;5.60;99.90;;;;;;5036119;28;20404;-39
2022/03/14 05:44:14;;;;;;;10.35;2.65;;;5.50;99.90;;;;;;5033060;28;20037;-43
2022/03/14 05:46:41;;;;;;;11.80;2.80;;;5.50;99.90;;;;;;5033143;28;20125;-39
2022/03/14 05:49:08;;;;;;;6.60;2.88;;;5.40;99.90;;;;;;5032768;28;20045;-39
2022/03/14 05:51:37;;;;;;;10.15;2.78;;;5.40;99.80;;;;;;5033182;28;20037;-41
2022/03/14 05:54:04;;;;;;;8.55;2.25;;;5.50;99.80;;;;;;5033212;28;20045;-44
2022/03/14 05:56:31;;;;;;;9.48;2.65;;;5.40;99.70;;;;;;5033132;28;20042;-40
2022/03/14 05:58:59;;;;;;;9.20;2.65;;;5.40;99.70;;;;;;5033222;28;20448;-44
2022/03/14 06:01:26;;;;;;;9.73;2.95;;;5.30;99.40;;;;;;5033065;28;20041;-41
2022/03/14 06:03:53;;;;;;;13.07;3.42;;;5.30;99.80;;;;;;5033006;28;20041;-40
2022/03/14 06:06:20;;;;;;;16.38;5.78;;;5.30;99.70;;;;;;5032944;28;20037;-43
2022/03/14 06:08:47;;;;;;;14.85;5.28;;;5.20;99.80;;;;;;5038139;28;20523;-46
2022/03/14 06:11:15;;;;;;;14.90;4.85;;;5.20;99.90;;;;;;5032901;28;20112;-41
2022/03/14 06:13:42;;;;;;;17.92;5.45;;;5.20;99.90;;;;;;5032900;28;20484;-40
2022/03/14 06:16:08;;;;;;;9.13;3.50;;;5.20;99.90;;;;;;5032852;28;20041;-42
2022/03/14 06:18:35;;;;;;;10.65;3.25;;;5.20;99.90;;;;;;5033246;28;20102;-40
2022/03/14 06:21:02;;;;;;;11.25;2.88;;;5.20;99.90;;;;;;5032803;28;20136;-40
2022/03/14 06:23:29;;;;;;;13.07;3.58;;;5.20;99.90;;;;;;5032755;28;20045;-42
2022/03/14 06:25:57;;;;;;;11.73;3.67;;;5.10;99.80;;;;;;5032967;28;20136;-41
2022/03/14 06:28:23;;;;;;;12.00;4.50;;;5.10;99.90;;;;;;5032744;28;20432;-39
2022/03/14 06:30:50;;;;;;;9.77;4.03;;;5.00;99.90;;;;;;5032572;28;20401;-49
2022/03/14 06:33:17;;;;;;;10.75;3.42;;;5.00;99.90;;;;;;5033035;28;20046;-41
2022/03/14 06:35:44;;;;;;;7.32;3.47;;;5.00;99.90;;;;;;5032724;28;20129;-40
2022/03/14 06:38:11;;;;;;;10.02;4.03;;;5.00;99.90;;;;;;5034665;28;20048;-41
2022/03/14 06:40:38;;;;;;;11.00;4.18;;;5.00;99.90;;;;;;5032566;28;20107;-43
2022/03/14 06:43:05;;;;;;;10.90;4.30;;;5.10;99.90;;;;;;5032529;28;20041;-45
2022/03/14 06:45:32;;;;;;;20.98;8.27;;;5.10;99.90;;;;;;5027624;28;20037;-40
2022/03/14 06:48:00;;;;;;;14.43;6.25;;;5.10;99.90;;;;;;5027607;28;20112;-42
2022/03/14 06:50:31;;;;;;;15.55;5.57;;;5.10;99.90;;;;;;5030405;28;20049;-40
2022/03/14 06:52:58;;;;;;;11.77;4.60;;;5.20;99.90;;;;;;5034956;28;20051;-43
2022/03/14 06:55:26;;;;;;;13.73;4.50;;;5.30;99.90;;;;;;5036075;28;20048;-41
2022/03/14 06:57:54;;;;;;;14.32;4.68;;;5.30;99.90;;;;;;5036130;28;20402;-40
2022/03/14 07:00:21;;;;;;;8.48;4.60;;;5.40;99.90;;;;;;5035940;28;20048;-40
2022/03/14 07:02:49;;;;;;;14.52;4.97;;;5.50;99.90;;;;;;5036066;28;20358;-40
2022/03/14 07:05:21;;;;;;;9.85;4.43;;;5.50;99.70;;;;;;5035908;28;20493;-40
2022/03/14 07:07:48;;;;;;;11.30;4.20;;;5.60;99.70;;;;;;5036297;28;20045;-40
2022/03/14 07:10:16;;;;;;;8.52;3.78;;;5.70;99.50;;;;;;5040804;28;20040;-42
2022/03/14 07:12:46;;;;;;;10.20;3.90;;;5.70;99.60;;;;;;5034453;28;20125;-41
2022/03/14 07:15:13;;;;;;;9.10;3.88;;;5.70;99.60;;;;;;5034539;28;20395;-45
2022/03/14 07:17:41;;;;;;;11.20;4.65;;;5.70;99.70;;;;;;5035637;28;20065;-42
2022/03/14 07:20:08;;;;;;;8.30;3.83;;;5.70;99.70;;;;;;5035565;28;20481;-39
2022/03/14 07:22:36;;;;;;;8.88;3.90;;;5.70;99.80;;;;;;5035837;28;20520;-38
2022/03/14 07:25:05;;;;;;;10.65;4.43;;;5.70;99.80;;;;;;5035601;28;20045;-39
2022/03/14 07:27:33;;;;;;;8.38;3.70;;;5.70;99.90;;;;;;5035712;28;20369;-41
2022/03/14 07:30:00;;;;;;;9.20;3.92;;;5.70;99.90;;;;;;5035601;28;20064;-47
2022/03/14 07:32:27;;;;;;;9.73;4.30;;;5.80;99.90;;;;;;5035466;28;20103;-39
2022/03/14 07:34:54;;;;;;;10.85;3.30;;;5.80;99.90;;;;;;5035413;28;20041;-40
2022/03/14 07:37:20;;;;;;;11.02;2.38;;;5.90;99.90;;;;;;5035244;28;20042;-39
2022/03/14 07:39:47;;;;;;;7.47;1.90;;;5.90;99.70;;;;;;5037197;28;20057;-40
2022/03/14 07:42:15;;;;;;;10.02;2.25;;;6.00;99.60;;;;;;5040057;28;20053;-45
2022/03/14 07:44:41;;;;;;;8.55;1.90;;;6.10;99.40;;;;;;5035041;28;20374;-42
2022/03/14 07:47:10;;;;;;;7.43;1.60;;;6.20;99.30;;;;;;5033961;28;20130;-40
2022/03/14 07:49:37;;;;;;;10.93;2.53;;;6.30;99.20;;;;;;5034873;28;20045;-42
2022/03/14 07:52:04;;;;;;;5.47;1.50;;;6.30;99.10;;;;;;5034968;28;20460;-42
2022/03/14 07:54:31;;;;;;;6.07;1.88;;;6.40;98.90;;;;;;5034893;28;20067;-46
2022/03/14 07:56:57;;;;;;;10.65;2.13;;;6.50;99.00;;;;;;5035059;28;20104;-41
2022/03/14 07:59:24;;;;;;;6.95;1.85;;;6.50;98.80;;;;;;5034900;28;20484;-45
2022/03/14 08:01:51;;;;;;;8.82;3.15;;;6.60;98.80;;;;;;5034819;28;20073;-45
2022/03/14 08:04:18;;;;;;;9.38;2.08;;;6.60;98.80;;;;;;5034711;28;20043;-43
2022/03/14 08:06:47;;;;;;;11.70;2.15;;;6.70;98.70;;;;;;5033125;28;20034;-39
2022/03/14 08:09:13;;;;;;;9.23;2.10;;;6.70;98.60;;;;;;5037493;28;20476;-42
2022/03/14 08:11:41;;;;;;;11.90;2.28;;;6.80;98.60;;;;;;5034516;28;20116;-42
2022/03/14 08:14:08;;;;;;;7.90;2.10;;;6.90;98.50;;;;;;5034581;28;20083;-43
2022/03/14 08:16:35;;;;;;;7.90;2.03;;;6.90;98.50;;;;;;5034743;28;20073;-43
2022/03/14 08:19:01;;;;;;;8.50;2.28;;;7.00;98.30;;;;;;5034449;28;20050;-45
2022/03/14 08:21:28;;;;;;;7.47;1.73;;;7.20;98.20;;;;;;5034675;28;20037;-39
2022/03/14 08:23:55;;;;;;;10.80;1.92;;;7.30;98.30;;;;;;5033932;28;20049;-40
2022/03/14 08:26:22;;;;;;;8.55;2.00;;;7.40;98.20;;;;;;5034083;28;20439;-45
2022/03/14 08:28:49;;;;;;;8.90;1.50;;;7.40;97.90;;;;;;5034089;28;20037;-39
2022/03/14 08:31:16;;;;;;;9.65;1.88;;;7.50;97.50;;;;;;5033823;28;20114;-44
2022/03/14 08:33:42;;;;;;;11.02;1.98;;;7.60;97.30;;;;;;5031806;28;20425;-39
2022/03/14 08:36:09;;;;;;;12.73;2.58;;;7.70;97.10;;;;;;5031984;28;20045;-40
2022/03/14 08:38:36;;;;;;;11.15;2.13;;;7.80;97.10;;;;;;5038413;28;20048;-46
2022/03/14 08:41:03;;;;;;;6.45;1.75;;;7.80;97.20;;;;;;5030972;28;20451;-45
2022/03/14 08:43:30;;;;;;;10.00;2.00;;;7.90;97.00;;;;;;5032082;28;20045;-46
2022/03/14 08:45:56;;;;;;;10.85;2.20;;;7.90;97.00;;;;;;5032196;28;20120;-42
2022/03/14 08:48:23;;;;;;;11.35;2.13;;;7.90;97.10;;;;;;5033256;28;20041;-46
2022/03/14 08:50:50;;;;;;;12.63;1.92;;;8.00;97.00;;;;;;5027508;28;20071;-42
2022/03/14 08:53:17;;;;;;;12.35;2.55;;;8.00;96.80;;;;;;5027454;28;20037;-42
2022/03/14 08:55:44;;;;;;;19.17;2.38;;;8.10;96.80;;;;;;5027266;28;20573;-42
2022/03/14 08:58:10;;;;;;;14.15;2.00;;;8.10;96.70;;;;;;5033798;28;20041;-44
2022/03/14 09:00:38;;;;;;;13.38;2.10;;;8.10;96.60;;;;;;5033439;28;20045;-50
2022/03/14 09:03:05;;;;;;;11.60;2.53;;;8.20;96.50;;;;;;5033592;28;20041;-46
2022/03/14 09:05:32;;;;;;;15.75;2.50;;;8.30;96.40;;;;;;5033467;28;20049;-42
2022/03/14 09:07:59;;;;;;;10.75;1.98;;;8.30;96.10;;;;;;5033357;28;20037;-43
2022/03/14 09:10:25;;;;;;;12.95;2.50;;;8.40;95.80;;;;;;5040854;28;20037;-49
2022/03/14 09:12:52;;;;;;;12.65;2.03;;;8.40;95.60;;;;;;5032194;28;20047;-46
2022/03/14 09:15:20;;;;;;;14.95;3.00;;;8.50;95.80;;;;;;5033284;28;20072;-45
2022/03/14 09:17:47;;;;;;;13.80;2.40;;;8.50;95.80;;;;;;5033363;28;20045;-46
2022/03/14 09:20:15;;;;;;;13.35;2.17;;;8.60;95.60;;;;;;5033295;28;20045;-48
2022/03/14 09:22:43;;;;;;;12.40;2.15;;;8.60;95.30;;;;;;5033288;28;20095;-43
2022/03/14 09:25:10;;;;;;;10.93;2.17;;;8.60;95.40;;;;;;5033304;28;20468;-47
2022/03/14 09:27:37;;;;;;;14.07;2.70;;;8.70;95.60;;;;;;5033244;28;20072;-46
2022/03/14 09:30:04;;;;;;;11.40;2.20;;;8.80;95.30;;;;;;5031852;28;20099;-41
2022/03/14 09:32:30;;;;;;;13.52;2.63;;;8.90;95.00;;;;;;5033409;28;20075;-42
2022/03/14 09:35:00;;;;;;;14.48;2.95;;;9.00;94.90;;;;;;5033383;28;20484;-47
2022/03/14 09:37:31;;;;;;;9.70;2.40;;;9.10;95.00;;;;;;5033322;28;20053;-44
2022/03/14 09:39:58;;;;;;;9.73;1.95;;;9.20;94.60;;;;;;5034939;28;20140;-47
2022/03/14 09:42:24;;;;;;;14.45;2.10;;;9.20;94.20;;;;;;5034634;28;20050;-43
2022/03/14 09:44:53;;;;;;;10.45;2.22;;;9.30;94.60;;;;;;5032941;28;20427;-41
2022/03/14 09:47:22;;;;;;;13.82;2.65;;;9.40;94.30;;;;;;5033135;28;20045;-43
2022/03/14 09:49:48;;;;;;;9.93;2.22;;;9.50;94.20;;;;;;5032939;28;20041;-40
2022/03/14 09:52:15;;;;;;;10.88;2.15;;;9.70;93.50;;;;;;5032986;28;20049;-46
2022/03/14 09:54:42;;;;;;;14.15;2.63;;;9.80;93.70;;;;;;5033051;28;20072;-40
2022/03/14 09:57:09;;;;;;;10.63;1.75;;;9.90;93.60;;;;;;5032857;28;20128;-39
2022/03/14 09:59:36;;;;;;;7.85;2.08;;;10.00;93.50;;;;;;5033054;28;20045;-41
2022/03/14 10:02:02;;;;;;;14.38;2.53;;;10.20;92.70;;;;;;5032927;28;20060;-41
2022/03/14 10:04:29;;;;;;;13.40;2.80;;;10.20;93.10;;;;;;5032747;28;20068;-40
2022/03/14 10:06:56;;;;;;;10.48;2.17;;;10.30;92.70;;;;;;5032845;28;20508;-39
2022/03/14 10:09:23;;;;;;;10.43;2.13;;;10.40;92.00;;;;;;5035865;28;20073;-43
2022/03/14 10:11:50;;;;;;;13.25;2.80;;;10.50;91.40;;;;;;5032724;28;20099;-40
2022/03/14 10:14:18;;;;;;;10.15;2.40;;;10.60;92.10;;;;;;5032885;28;20467;-44
2022/03/14 10:16:45;;;;;;;8.27;2.17;;;10.70;90.90;;;;;;5031587;28;20041;-46
2022/03/14 10:19:13;;;;;;;11.77;2.20;;;10.90;91.30;;;;;;5032801;28;20068;-45
2022/03/14 10:21:40;;;;;;;7.70;2.05;;;10.90;90.50;;;;;;5032688;28;20041;-42
2022/03/14 10:24:07;;;;;;;9.13;2.20;;;11.00;90.70;;;;;;5035669;28;20120;-44
2022/03/14 10:26:34;;;;;;;10.77;2.35;;;11.10;90.30;;;;;;5036448;28;20033;-40
2022/03/14 10:29:01;;;;;;;8.52;1.92;;;11.30;90.00;;;;;;5036305;28;20053;-41
2022/03/14 10:31:34;;;;;;;9.70;2.00;;;11.30;90.30;;;;;;5035216;28;20400;-41
2022/03/14 10:34:04;;;;;;;14.50;2.25;;;11.50;88.50;;;;;;5036328;28;20041;-48
2022/03/14 10:36:30;;;;;;;9.57;2.05;;;11.60;88.20;;;;;;5036412;28;20049;-43
2022/03/14 10:38:57;;;;;;;9.73;2.40;;;11.70;89.40;;;;;;5036486;28;20507;-39
2022/03/14 10:41:24;;;;;;;8.73;2.50;;;11.90;88.70;;;;;;5036139;28;20053;-42
2022/03/14 10:44:11;;;;;;;8.68;1.73;;;12.00;87.80;;;;;;5036130;28;20065;-46
2022/03/14 10:46:37;;;;;;;11.45;2.38;;;12.10;85.50;;;;;;5035888;28;20042;-43
2022/03/14 10:49:09;;;;;;;12.23;2.25;;;12.20;84.60;;;;;;5036029;28;20083;-47
2022/03/14 10:51:41;;;;;;;7.13;2.08;;;12.30;85.30;;;;;;5036070;28;20030;-41
2022/03/14 10:54:07;;;;;;;11.20;2.45;;;12.30;84.40;;;;;;5036013;28;20069;-43
2022/03/14 10:56:34;;;;;;;8.10;2.05;;;12.30;84.70;;;;;;5035937;28;20045;-41
2022/03/14 10:59:01;;;;;;;11.65;2.38;;;12.50;84.50;;;;;;5035776;28;20544;-43
2022/03/14 11:01:28;;;;;;;8.88;2.05;;;12.60;81.30;;;;;;5034549;28;20053;-40
2022/03/14 11:03:54;;;;;;;9.18;2.10;;;12.50;80.70;;;;;;5035659;28;20136;-41
2022/03/14 11:06:24;;;;;;;9.75;1.80;;;12.50;79.30;;;;;;5035773;28;20033;-46
2022/03/14 11:08:51;;;;;;;9.35;1.80;;;12.40;79.80;;;;;;5036833;28;20112;-49
2022/03/14 11:11:18;;;;;;;11.23;2.17;;;12.40;81.00;;;;;;5035686;28;20048;-50
2022/03/14 11:13:45;;;;;;;10.05;1.92;;;12.40;81.50;;;;;;5035640;28;20072;-44
2022/03/14 11:16:12;;;;;;;6.82;1.80;;;12.40;81.80;;;;;;5035569;28;20046;-43
2022/03/14 11:18:39;;;;;;;8.15;2.03;;;12.30;79.90;;;;;;5035463;28;20045;-47
2022/03/14 11:21:06;;;;;;;7.80;1.95;;;12.30;81.10;;;;;;5035417;28;20048;-43
2022/03/14 11:23:33;;;;;;;8.90;1.80;;;12.40;81.10;;;;;;5035471;28;20100;-46
2022/03/14 11:26:00;;;;;;;9.68;2.47;;;12.40;80.70;;;;;;5034079;28;20041;-42
2022/03/14 11:28:27;;;;;;;12.85;1.95;;;12.50;80.60;;;;;;5035444;28;20099;-41
2022/03/14 11:30:53;;;;;;;7.32;1.63;;;12.60;81.40;;;;;;5035413;28;20041;-40
2022/03/14 11:33:20;;;;;;;8.23;1.65;;;12.80;80.40;;;;;;5034988;28;20069;-42
2022/03/14 11:35:47;;;;;;;11.38;1.92;;;13.00;80.00;;;;;;5035277;28;20048;-42
2022/03/14 11:38:14;;;;;;;9.63;1.65;;;13.10;79.60;;;;;;5036896;28;20128;-44
2022/03/14 11:40:40;;;;;;;9.55;2.08;;;13.10;76.70;;;;;;5038325;28;20053;-42
2022/03/14 11:43:09;;;;;;;8.43;1.85;;;13.10;77.80;;;;;;5038058;28;20124;-41
2022/03/14 11:45:36;;;;;;;9.93;2.03;;;13.20;78.20;;;;;;5034861;28;20037;-41
2022/03/14 11:48:05;;;;;;;7.47;2.05;;;13.30;78.30;;;;;;5035023;28;20072;-44
2022/03/14 11:50:34;;;;;;;7.63;1.75;;;13.40;78.90;;;;;;5034982;28;20041;-43
2022/03/14 11:53:01;;;;;;;7.38;1.90;;;13.50;78.20;;;;;;5035049;28;20037;-41
2022/03/14 11:55:28;;;;;;;9.10;1.75;;;13.70;76.40;;;;;;5034990;28;20046;-44
2022/03/14 11:57:55;;;;;;;7.25;2.00;;;13.70;75.80;;;;;;5033526;28;20045;-40
2022/03/14 12:00:24;;;;;;;7.00;2.00;;;13.70;74.90;;;;;;5034695;28;20515;-43
2022/03/14 12:02:51;;;;;;;9.52;1.98;;;13.70;77.00;;;;;;5034838;28;20088;-43
2022/03/14 12:05:18;;;;;;;8.68;2.15;;;13.80;76.30;;;;;;5033580;28;20068;-41
2022/03/14 12:07:44;;;;;;;5.97;1.70;;;13.80;76.70;;;;;;5033568;28;20069;-41
2022/03/14 12:10:11;;;;;;;9.27;2.17;;;13.70;76.70;;;;;;5033598;28;20041;-46
2022/03/14 12:12:38;;;;;;;6.00;1.65;;;13.80;74.80;;;;;;5034382;28;20116;-47
2022/03/14 12:15:05;;;;;;;8.88;1.60;;;13.80;75.80;;;;;;5034523;28;20045;-42
2022/03/14 12:17:32;;;;;;;8.05;2.10;;;13.80;77.40;;;;;;5034556;28;20045;-47
2022/03/14 12:19:59;;;;;;;10.75;1.83;;;13.80;75.60;;;;;;5033227;28;20068;-46
2022/03/14 12:22:26;;;;;;;7.70;1.95;;;13.90;74.90;;;;;;5034478;28;20045;-44
2022/03/14 12:24:53;;;;;;;6.43;1.75;;;13.90;76.50;;;;;;5034327;28;20041;-43
2022/03/14 12:27:19;;;;;;;5.57;1.55;;;14.10;75.90;;;;;;5034179;28;20535;-49
2022/03/14 12:29:46;;;;;;;10.98;1.70;;;14.10;75.40;;;;;;5033969;28;20046;-46
2022/03/14 12:32:13;;;;;;;7.28;1.80;;;14.10;74.80;;;;;;5034245;28;20048;-49
2022/03/14 12:34:40;;;;;;;5.63;1.77;;;13.90;76.10;;;;;;5034081;28;20049;-47
2022/03/14 12:37:06;;;;;;;8.27;2.00;;;13.90;76.40;;;;;;5034113;28;20137;-42
2022/03/14 12:39:33;;;;;;;9.98;1.60;;;13.90;77.60;;;;;;5036251;28;20451;-42
2022/03/14 12:42:00;;;;;;;7.50;1.80;;;13.90;77.40;;;;;;5038935;28;20045;-44
2022/03/14 12:44:29;;;;;;;8.43;1.70;;;13.80;76.80;;;;;;5034153;28;20072;-39
2022/03/14 12:46:56;;;;;;;9.90;2.17;;;13.70;76.50;;;;;;5033137;28;20128;-40